createdAt,value
2023-04-21T00:00:49.204Z,94554.00
2023-04-21T00:01:49.178Z,94554.00
2023-04-21T00:02:49.314Z,94558.00
2023-04-21T00:03:49.402Z,94562.00
2023-04-21T00:04:49.490Z,94560.00
2023-04-21T00:05:49.467Z,94558.00
2023-04-21T00:06:49.315Z,94552.00
2023-04-21T00:07:49.368Z,94545.00
2023-04-21T00:08:49.358Z,94543.00
2023-04-21T00:09:49.414Z,94545.00
2023-04-21T00:10:49.453Z,94547.00
2023-04-21T00:11:49.426Z,94547.00
2023-04-21T00:12:49.479Z,94548.00
2023-04-21T00:13:49.486Z,94547.00
2023-04-21T00:14:49.516Z,94545.00
2023-04-21T00:15:49.579Z,94541.00
2023-04-21T00:16:49.538Z,94541.00
2023-04-21T00:17:49.686Z,94545.00
2023-04-21T00:18:49.634Z,94545.00
2023-04-21T00:19:49.669Z,94545.00
2023-04-21T00:20:49.659Z,94537.00
2023-04-21T00:21:49.655Z,94531.00
2023-04-21T00:22:49.689Z,94535.00
2023-04-21T00:23:49.727Z,94541.00
2023-04-21T00:24:49.733Z,94547.00
2023-04-21T00:25:49.788Z,94548.00
2023-04-21T00:26:49.800Z,94547.00
2023-04-21T00:27:49.826Z,94543.00
2023-04-21T00:28:49.864Z,94537.00
2023-04-21T00:29:49.876Z,94541.00
2023-04-21T00:30:49.858Z,94545.00
2023-04-21T00:31:50.013Z,94548.00
2023-04-21T00:32:49.946Z,94547.00
2023-04-21T00:33:49.943Z,94543.00
2023-04-21T00:34:49.953Z,94539.00
2023-04-21T00:35:50.037Z,94539.00
2023-04-21T00:36:50.020Z,94545.00
2023-04-21T00:37:50.038Z,94550.00
2023-04-21T00:38:50.089Z,94550.00
2023-04-21T00:39:50.106Z,94552.00
2023-04-21T00:40:50.133Z,94547.00
2023-04-21T00:41:51.025Z,94543.00
2023-04-21T00:42:50.194Z,94539.00
2023-04-21T00:43:50.229Z,94541.00
2023-04-21T00:44:50.227Z,94545.00
2023-04-21T00:45:50.265Z,94541.00
2023-04-21T00:46:50.347Z,94543.00
2023-04-21T00:47:50.341Z,94541.00
2023-04-21T00:48:50.318Z,94541.00
2023-04-21T00:49:50.368Z,94539.00
2023-04-21T00:50:50.398Z,94539.00
2023-04-21T00:51:50.426Z,94539.00
2023-04-21T00:52:50.444Z,94537.00
2023-04-21T00:53:50.461Z,94541.00
2023-04-21T00:54:50.516Z,94545.00
2023-04-21T00:55:50.918Z,94547.00
2023-04-21T00:56:50.530Z,94547.00
2023-04-21T00:57:50.583Z,94548.00
2023-04-21T00:58:50.633Z,94548.00
2023-04-21T00:59:50.614Z,94552.00
2023-04-21T01:00:50.672Z,94548.00
2023-04-21T01:01:50.743Z,94554.00
2023-04-21T01:02:50.901Z,94556.00
2023-04-21T01:03:50.847Z,94558.00
2023-04-21T01:04:50.785Z,94558.00
2023-04-21T01:05:50.792Z,94560.00
2023-04-21T01:06:50.838Z,94556.00
2023-04-21T01:07:50.840Z,94552.00
2023-04-21T01:08:50.876Z,94556.00
2023-04-21T01:09:50.921Z,94550.00
2023-04-21T01:10:50.938Z,94552.00
2023-04-21T01:11:50.928Z,94560.00
2023-04-21T01:12:50.971Z,94558.00
2023-04-21T01:13:51.039Z,94562.00
2023-04-21T01:14:51.080Z,94558.00
2023-04-21T01:15:51.085Z,94556.00
2023-04-21T01:16:51.137Z,94554.00
2023-04-21T01:17:51.128Z,94552.00
2023-04-21T01:18:51.153Z,94550.00
2023-04-21T01:19:51.198Z,94550.00
2023-04-21T01:20:51.198Z,94550.00
2023-04-21T01:21:51.261Z,94550.00
2023-04-21T01:22:51.239Z,94552.00
2023-04-21T01:23:51.322Z,94550.00
2023-04-21T01:24:51.338Z,94550.00
2023-04-21T01:25:51.370Z,94548.00
2023-04-21T01:26:51.383Z,94548.00
2023-04-21T01:27:51.399Z,94548.00
2023-04-21T01:28:51.469Z,94548.00
2023-04-21T01:29:51.475Z,94548.00
2023-04-21T01:30:51.514Z,94548.00
2023-04-21T01:31:51.599Z,94548.00
2023-04-21T01:32:51.642Z,94550.00
2023-04-21T01:33:51.606Z,94548.00
2023-04-21T01:34:51.636Z,94550.00
2023-04-21T01:35:51.697Z,94547.00
2023-04-21T01:36:51.707Z,94548.00
2023-04-21T01:37:51.814Z,94547.00
2023-04-21T01:38:51.738Z,94550.00
2023-04-21T01:39:51.793Z,94550.00
2023-04-21T01:40:51.825Z,94550.00
2023-04-21T01:41:51.877Z,94554.00
2023-04-21T01:42:51.865Z,94550.00
2023-04-21T01:43:51.911Z,94548.00
2023-04-21T01:44:51.969Z,94548.00
2023-04-21T01:45:52.014Z,94548.00
2023-04-21T01:46:51.972Z,94548.00
2023-04-21T01:47:52.046Z,94550.00
2023-04-21T01:48:52.068Z,94548.00
2023-04-21T01:49:52.039Z,94547.00
2023-04-21T01:50:52.069Z,94547.00
2023-04-21T01:51:52.163Z,94548.00
2023-04-21T01:52:52.152Z,94548.00
2023-04-21T01:53:52.185Z,94545.00
2023-04-21T01:54:52.222Z,94543.00
2023-04-21T01:55:52.244Z,94539.00
2023-04-21T01:56:52.347Z,94539.00
2023-04-21T01:57:52.319Z,94541.00
2023-04-21T01:58:52.366Z,94539.00
2023-04-21T01:59:52.379Z,94541.00
2023-04-21T02:00:52.420Z,94541.00
2023-04-21T02:01:52.538Z,94541.00
2023-04-21T02:02:52.596Z,94541.00
2023-04-21T02:03:52.670Z,94543.00
2023-04-21T02:04:52.563Z,94547.00
2023-04-21T02:05:52.557Z,94547.00
2023-04-21T02:06:52.605Z,94550.00
2023-04-21T02:07:52.610Z,94552.00
2023-04-21T02:08:52.673Z,94554.00
2023-04-21T02:09:52.687Z,94552.00
2023-04-21T02:10:52.737Z,94552.00
2023-04-21T02:11:52.776Z,94552.00
2023-04-21T02:12:52.775Z,94552.00
2023-04-21T02:13:52.835Z,94550.00
2023-04-21T02:14:52.841Z,94554.00
2023-04-21T02:16:02.492Z,94556.00
2023-04-21T02:16:53.929Z,94554.00
2023-04-21T02:17:52.895Z,94554.00
2023-04-21T02:18:52.905Z,94560.00
2023-04-21T02:19:52.874Z,94562.00
2023-04-21T02:20:52.856Z,94564.00
2023-04-21T02:21:52.865Z,94568.00
2023-04-21T02:22:52.853Z,94568.00
2023-04-21T02:23:52.864Z,94570.00
2023-04-21T02:24:52.848Z,94568.00
2023-04-21T02:25:52.860Z,94568.00
2023-04-21T02:26:52.826Z,94572.00
2023-04-21T02:27:52.805Z,94572.00
2023-04-21T02:28:52.816Z,94570.00
2023-04-21T02:29:52.811Z,94570.00
2023-04-21T02:30:52.914Z,94562.00
2023-04-21T02:32:01.199Z,94562.00
2023-04-21T02:32:54.130Z,94566.00
2023-04-21T02:33:52.859Z,94568.00
2023-04-21T02:34:52.873Z,94568.00
2023-04-21T02:35:52.875Z,94570.00
2023-04-21T02:36:52.873Z,94574.00
2023-04-21T02:37:52.876Z,94574.00
2023-04-21T02:38:52.970Z,94576.00
2023-04-21T02:39:52.806Z,94570.00
2023-04-21T02:40:52.842Z,94566.00
2023-04-21T02:41:52.801Z,94568.00
2023-04-21T02:42:52.809Z,94572.00
2023-04-21T02:43:52.825Z,94570.00
2023-04-21T02:44:52.818Z,94572.00
2023-04-21T02:45:52.795Z,94574.00
2023-04-21T02:46:52.903Z,94578.00
2023-04-21T02:47:52.905Z,94582.00
2023-04-21T02:48:52.928Z,94578.00
2023-04-21T02:49:52.924Z,94576.00
2023-04-21T02:50:52.982Z,94580.00
2023-04-21T02:51:52.988Z,94582.00
2023-04-21T02:52:53.018Z,94582.00
2023-04-21T02:53:53.070Z,94584.00
2023-04-21T02:54:53.089Z,94584.00
2023-04-21T02:55:53.101Z,94586.00
2023-04-21T02:56:53.123Z,94586.00
2023-04-21T02:57:53.170Z,94584.00
2023-04-21T02:58:53.199Z,94586.00
2023-04-21T02:59:53.209Z,94586.00
2023-04-21T03:00:53.316Z,94584.00
2023-04-21T03:01:53.295Z,94586.00
2023-04-21T03:02:53.540Z,94584.00
2023-04-21T03:03:53.385Z,94582.00
2023-04-21T03:04:53.381Z,94584.00
2023-04-21T03:05:53.435Z,94584.00
2023-04-21T03:06:53.432Z,94586.00
2023-04-21T03:07:53.453Z,94588.00
2023-04-21T03:08:53.501Z,94588.00
2023-04-21T03:09:53.555Z,94588.00
2023-04-21T03:10:53.564Z,94588.00
2023-04-21T03:11:53.585Z,94590.00
2023-04-21T03:12:53.668Z,94592.00
2023-04-21T03:13:53.649Z,94592.00
2023-04-21T03:14:53.672Z,94592.00
2023-04-21T03:15:53.739Z,94592.00
2023-04-21T03:16:53.822Z,94592.00
2023-04-21T03:17:53.891Z,94588.00
2023-04-21T03:18:53.818Z,94592.00
2023-04-21T03:19:53.837Z,94588.00
2023-04-21T03:20:53.879Z,94588.00
2023-04-21T03:21:53.921Z,94582.00
2023-04-21T03:22:53.974Z,94576.00
2023-04-21T03:23:53.968Z,94578.00
2023-04-21T03:24:54.032Z,94582.00
2023-04-21T03:25:54.095Z,94582.00
2023-04-21T03:26:54.085Z,94580.00
2023-04-21T03:27:54.080Z,94580.00
2023-04-21T03:28:54.154Z,94580.00
2023-04-21T03:29:54.203Z,94578.00
2023-04-21T03:30:54.252Z,94578.00
2023-04-21T03:31:54.220Z,94580.00
2023-04-21T03:32:54.274Z,94580.00
2023-04-21T03:33:54.337Z,94574.00
2023-04-21T03:34:54.310Z,94574.00
2023-04-21T03:35:54.342Z,94580.00
2023-04-21T03:36:54.394Z,94586.00
2023-04-21T03:37:54.416Z,94590.00
2023-04-21T03:38:54.431Z,94590.00
2023-04-21T03:39:54.494Z,94594.00
2023-04-21T03:40:54.511Z,94592.00
2023-04-21T03:41:54.565Z,94594.00
2023-04-21T03:42:54.556Z,94595.00
2023-04-21T03:43:54.617Z,94595.00
2023-04-21T03:44:54.625Z,94597.00
2023-04-21T03:45:54.713Z,94595.00
2023-04-21T03:46:54.731Z,94594.00
2023-04-21T03:47:54.826Z,94595.00
2023-04-21T03:48:54.789Z,94594.00
2023-04-21T03:49:54.844Z,94595.00
2023-04-21T03:50:54.881Z,94594.00
2023-04-21T03:51:54.931Z,94594.00
2023-04-21T03:52:54.922Z,94594.00
2023-04-21T03:53:54.979Z,94599.00
2023-04-21T03:54:55.014Z,94599.00
2023-04-21T03:55:55.044Z,94599.00
2023-04-21T03:56:55.073Z,94599.00
2023-04-21T03:57:55.089Z,94601.00
2023-04-21T03:58:55.118Z,94595.00
2023-04-21T03:59:55.141Z,94594.00
2023-04-21T04:00:55.167Z,94588.00
2023-04-21T04:01:55.230Z,94590.00
2023-04-21T04:02:55.444Z,94592.00
2023-04-21T04:03:55.422Z,94592.00
2023-04-21T04:04:55.386Z,94594.00
2023-04-21T04:05:55.359Z,94594.00
2023-04-21T04:06:55.396Z,94594.00
2023-04-21T04:07:55.437Z,94592.00
2023-04-21T04:08:55.508Z,94590.00
2023-04-21T04:09:55.498Z,94584.00
2023-04-21T04:10:55.550Z,94582.00
2023-04-21T04:11:55.565Z,94584.00
2023-04-21T04:12:55.646Z,94582.00
2023-04-21T04:13:55.681Z,94584.00
2023-04-21T04:14:55.683Z,94586.00
2023-04-21T04:15:55.727Z,94588.00
2023-04-21T04:16:55.737Z,94586.00
2023-04-21T04:17:55.840Z,94586.00
2023-04-21T04:18:55.842Z,94584.00
2023-04-21T04:19:55.829Z,94584.00
2023-04-21T04:20:55.855Z,94584.00
2023-04-21T04:21:55.905Z,94582.00
2023-04-21T04:22:55.933Z,94584.00
2023-04-21T04:23:55.920Z,94576.00
2023-04-21T04:24:55.983Z,94574.00
2023-04-21T04:25:56.008Z,94576.00
2023-04-21T04:26:56.033Z,94578.00
2023-04-21T04:27:56.087Z,94584.00
2023-04-21T04:28:56.132Z,94586.00
2023-04-21T04:29:56.167Z,94588.00
2023-04-21T04:30:56.271Z,94586.00
2023-04-21T04:31:56.209Z,94582.00
2023-04-21T04:32:56.337Z,94582.00
2023-04-21T04:33:56.292Z,94582.00
2023-04-21T04:34:56.322Z,94586.00
2023-04-21T04:35:56.378Z,94588.00
2023-04-21T04:36:56.390Z,94586.00
2023-04-21T04:37:56.452Z,94586.00
2023-04-21T04:38:56.522Z,94580.00
2023-04-21T04:39:56.513Z,94576.00
2023-04-21T04:40:56.548Z,94578.00
2023-04-21T04:41:56.604Z,94576.00
2023-04-21T04:42:56.638Z,94578.00
2023-04-21T04:43:56.754Z,94578.00
2023-04-21T04:44:56.698Z,94578.00
2023-04-21T04:45:56.757Z,94580.00
2023-04-21T04:46:56.837Z,94580.00
2023-04-21T04:47:56.862Z,94584.00
2023-04-21T04:48:56.884Z,94586.00
2023-04-21T04:49:56.891Z,94590.00
2023-04-21T04:50:56.912Z,94588.00
2023-04-21T04:51:56.965Z,94588.00
2023-04-21T04:52:56.968Z,94584.00
2023-04-21T04:53:57.038Z,94584.00
2023-04-21T04:54:57.058Z,94584.00
2023-04-21T04:55:57.070Z,94586.00
2023-04-21T04:56:57.120Z,94588.00
2023-04-21T04:57:57.169Z,94588.00
2023-04-21T04:58:57.208Z,94584.00
2023-04-21T04:59:57.267Z,94580.00
2023-04-21T05:00:57.262Z,94586.00
2023-04-21T05:01:57.393Z,94582.00
2023-04-21T05:02:57.434Z,94588.00
2023-04-21T05:03:57.485Z,94586.00
2023-04-21T05:04:57.507Z,94582.00
2023-04-21T05:05:57.442Z,94588.00
2023-04-21T05:06:57.470Z,94584.00
2023-04-21T05:07:57.526Z,94594.00
2023-04-21T05:08:57.563Z,94595.00
2023-04-21T05:09:57.609Z,94599.00
2023-04-21T05:10:57.651Z,94594.00
2023-04-21T05:11:57.674Z,94595.00
2023-04-21T05:12:57.681Z,94595.00
2023-04-21T05:13:57.764Z,94597.00
2023-04-21T05:14:57.794Z,94595.00
2023-04-21T05:15:57.799Z,94603.00
2023-04-21T05:16:57.928Z,94599.00
2023-04-21T05:17:57.916Z,94607.00
2023-04-21T05:18:57.911Z,94609.00
2023-04-21T05:19:58.009Z,94613.00
2023-04-21T05:20:57.967Z,94613.00
2023-04-21T05:21:58.100Z,94615.00
2023-04-21T05:22:58.048Z,94613.00
2023-04-21T05:23:58.100Z,94607.00
2023-04-21T05:24:58.116Z,94603.00
2023-04-21T05:25:58.173Z,94605.00
2023-04-21T05:26:58.203Z,94607.00
2023-04-21T05:27:58.244Z,94609.00
2023-04-21T05:28:58.355Z,94611.00
2023-04-21T05:29:58.298Z,94611.00
2023-04-21T05:30:58.400Z,94611.00
2023-04-21T05:31:58.464Z,94609.00
2023-04-21T05:32:58.481Z,94611.00
2023-04-21T05:33:58.475Z,94615.00
2023-04-21T05:34:58.489Z,94617.00
2023-04-21T05:35:58.527Z,94619.00
2023-04-21T05:36:58.546Z,94613.00
2023-04-21T05:37:58.598Z,94619.00
2023-04-21T05:38:58.639Z,94617.00
2023-04-21T05:39:58.671Z,94619.00
2023-04-21T05:40:58.697Z,94619.00
2023-04-21T05:41:58.739Z,94621.00
2023-04-21T05:42:58.732Z,94623.00
2023-04-21T05:43:58.768Z,94621.00
2023-04-21T05:44:58.807Z,94619.00
2023-04-21T05:45:58.856Z,94627.00
2023-04-21T05:46:58.903Z,94623.00
2023-04-21T05:47:58.957Z,94619.00
2023-04-21T05:48:58.985Z,94617.00
2023-04-21T05:49:59.003Z,94613.00
2023-04-21T05:50:59.064Z,94611.00
2023-04-21T05:51:59.084Z,94607.00
2023-04-21T05:52:59.127Z,94611.00
2023-04-21T05:53:59.250Z,94617.00
2023-04-21T05:54:59.245Z,94617.00
2023-04-21T05:55:59.253Z,94609.00
2023-04-21T05:56:59.263Z,94605.00
2023-04-21T05:57:59.268Z,94607.00
2023-04-21T05:58:59.282Z,94607.00
2023-04-21T05:59:59.254Z,94605.00
2023-04-21T06:00:59.256Z,94607.00
2023-04-21T06:01:59.262Z,94607.00
2023-04-21T06:02:59.437Z,94603.00
2023-04-21T06:03:59.364Z,94601.00
2023-04-21T06:04:59.455Z,94603.00
2023-04-21T06:05:59.281Z,94605.00
2023-04-21T06:06:59.278Z,94609.00
2023-04-21T06:07:59.244Z,94611.00
2023-04-21T06:08:59.270Z,94611.00
2023-04-21T06:09:59.231Z,94613.00
2023-04-21T06:10:59.222Z,94611.00
2023-04-21T06:11:59.282Z,94615.00
2023-04-21T06:12:59.312Z,94617.00
2023-04-21T06:13:59.359Z,94619.00
2023-04-21T06:14:59.397Z,94613.00
2023-04-21T06:15:59.438Z,94611.00
2023-04-21T06:16:59.455Z,94617.00
2023-04-21T06:17:59.481Z,94613.00
2023-04-21T06:18:59.538Z,94613.00
2023-04-21T06:19:59.561Z,94615.00
2023-04-21T06:20:59.518Z,94621.00
2023-04-21T06:21:59.582Z,94625.00
2023-04-21T06:22:59.747Z,94627.00
2023-04-21T06:23:59.628Z,94625.00
2023-04-21T06:25:00.602Z,94629.00
2023-04-21T06:25:59.747Z,94629.00
2023-04-21T06:26:59.725Z,94625.00
2023-04-21T06:27:59.760Z,94621.00
2023-04-21T06:28:59.774Z,94617.00
2023-04-21T06:29:59.805Z,94615.00
2023-04-21T06:30:59.894Z,94619.00
2023-04-21T06:31:59.981Z,94617.00
2023-04-21T06:33:00.036Z,94625.00
2023-04-21T06:34:00.030Z,94629.00
2023-04-21T06:35:00.115Z,94629.00
2023-04-21T06:36:00.206Z,94621.00
2023-04-21T06:37:00.239Z,94615.00
2023-04-21T06:38:00.281Z,94613.00
2023-04-21T06:39:00.329Z,94609.00
2023-04-21T06:40:00.365Z,94615.00
2023-04-21T06:41:00.429Z,94619.00
2023-04-21T06:42:00.458Z,94623.00
2023-04-21T06:43:00.515Z,94625.00
2023-04-21T06:44:00.522Z,94619.00
2023-04-21T06:45:00.570Z,94619.00
2023-04-21T06:46:00.608Z,94621.00
2023-04-21T06:47:00.704Z,94619.00
2023-04-21T06:48:00.678Z,94613.00
2023-04-21T06:49:00.688Z,94617.00
2023-04-21T06:50:00.702Z,94629.00
2023-04-21T06:51:00.772Z,94627.00
2023-04-21T06:52:00.748Z,94625.00
2023-04-21T06:53:00.753Z,94621.00
2023-04-21T06:54:00.818Z,94615.00
2023-04-21T06:55:00.966Z,94617.00
2023-04-21T06:56:00.848Z,94621.00
2023-04-21T06:57:00.858Z,94621.00
2023-04-21T06:58:00.857Z,94623.00
2023-04-21T06:59:00.919Z,94615.00
2023-04-21T07:00:00.923Z,94615.00
2023-04-21T07:01:00.940Z,94617.00
2023-04-21T07:02:00.996Z,94619.00
2023-04-21T07:03:01.057Z,94619.00
2023-04-21T07:04:01.100Z,94623.00
2023-04-21T07:05:01.016Z,94619.00
2023-04-21T07:06:01.000Z,94617.00
2023-04-21T07:07:02.513Z,94623.00
2023-04-21T07:08:01.064Z,94621.00
2023-04-21T07:09:01.115Z,94615.00
2023-04-21T07:10:01.093Z,94611.00
2023-04-21T07:11:01.104Z,94609.00
2023-04-21T07:12:01.170Z,94617.00
2023-04-21T07:13:01.145Z,94617.00
2023-04-21T07:14:01.190Z,94617.00
2023-04-21T07:15:01.270Z,94617.00
2023-04-21T07:16:01.241Z,94615.00
2023-04-21T07:17:01.317Z,94617.00
2023-04-21T07:18:01.419Z,94617.00
2023-04-21T07:19:01.367Z,94613.00
2023-04-21T07:20:01.369Z,94609.00
2023-04-21T07:21:01.400Z,94609.00
2023-04-21T07:22:01.453Z,94613.00
2023-04-21T07:23:01.458Z,94613.00
2023-04-21T07:24:01.486Z,94615.00
2023-04-21T07:25:01.541Z,94617.00
2023-04-21T07:26:01.584Z,94619.00
2023-04-21T07:27:01.637Z,94617.00
2023-04-21T07:28:01.642Z,94617.00
2023-04-21T07:29:01.637Z,94613.00
2023-04-21T07:30:01.755Z,94615.00
2023-04-21T07:31:03.577Z,94613.00
2023-04-21T07:32:01.786Z,94615.00
2023-04-21T07:33:01.830Z,94613.00
2023-04-21T07:34:01.840Z,94611.00
2023-04-21T07:35:01.920Z,94611.00
2023-04-21T07:36:01.897Z,94611.00
2023-04-21T07:37:01.911Z,94611.00
2023-04-21T07:38:01.936Z,94609.00
2023-04-21T07:39:01.984Z,94605.00
2023-04-21T07:40:02.043Z,94603.00
2023-04-21T07:41:02.142Z,94603.00
2023-04-21T07:42:02.061Z,94601.00
2023-04-21T07:43:02.120Z,94605.00
2023-04-21T07:44:02.181Z,94605.00
2023-04-21T07:45:02.184Z,94609.00
2023-04-21T07:46:02.323Z,94613.00
2023-04-21T07:47:02.285Z,94607.00
2023-04-21T07:48:02.345Z,94605.00
2023-04-21T07:49:17.691Z,94605.00
2023-04-21T07:50:03.329Z,94599.00
2023-04-21T07:51:02.292Z,94597.00
2023-04-21T07:52:02.302Z,94597.00
2023-04-21T07:53:02.305Z,94601.00
2023-04-21T07:54:02.280Z,94601.00
2023-04-21T07:55:02.280Z,94603.00
2023-04-21T07:56:02.252Z,94603.00
2023-04-21T07:57:02.276Z,94599.00
2023-04-21T07:58:02.269Z,94594.00
2023-04-21T07:59:02.268Z,94597.00
2023-04-21T08:00:02.236Z,94595.00
2023-04-21T08:01:02.275Z,94595.00
2023-04-21T08:02:02.257Z,94594.00
2023-04-21T08:03:02.286Z,94594.00
2023-04-21T08:04:02.359Z,94594.00
2023-04-21T08:05:02.379Z,94594.00
2023-04-21T08:06:02.581Z,94592.00
2023-04-21T08:07:02.295Z,94592.00
2023-04-21T08:08:02.282Z,94594.00
2023-04-21T08:09:02.322Z,94592.00
2023-04-21T08:10:02.329Z,94588.00
2023-04-21T08:11:02.372Z,94590.00
2023-04-21T08:12:02.424Z,94588.00
2023-04-21T08:13:02.448Z,94590.00
2023-04-21T08:14:02.461Z,94588.00
2023-04-21T08:15:02.541Z,94588.00
2023-04-21T08:16:02.512Z,94586.00
2023-04-21T08:17:02.570Z,94590.00
2023-04-21T08:18:02.620Z,94588.00
2023-04-21T08:19:02.634Z,94584.00
2023-04-21T08:20:02.597Z,94588.00
2023-04-21T08:21:02.639Z,94582.00
2023-04-21T08:22:02.667Z,94576.00
2023-04-21T08:23:02.730Z,94572.00
2023-04-21T08:24:02.758Z,94574.00
2023-04-21T08:25:02.747Z,94574.00
2023-04-21T08:26:02.772Z,94578.00
2023-04-21T08:27:02.807Z,94576.00
2023-04-21T08:28:02.846Z,94578.00
2023-04-21T08:29:04.541Z,94574.00
2023-04-21T08:30:02.864Z,94576.00
2023-04-21T08:31:02.972Z,94568.00
2023-04-21T08:32:03.075Z,94564.00
2023-04-21T08:33:02.977Z,94560.00
2023-04-21T08:34:03.212Z,94564.00
2023-04-21T08:35:03.022Z,94564.00
2023-04-21T08:36:09.847Z,94564.00
2023-04-21T08:37:04.024Z,94564.00
2023-04-21T08:38:03.038Z,94568.00
2023-04-21T08:39:03.021Z,94568.00
2023-04-21T08:40:03.030Z,94562.00
2023-04-21T08:41:03.000Z,94556.00
2023-04-21T08:42:03.063Z,94552.00
2023-04-21T08:43:02.994Z,94558.00
2023-04-21T08:44:03.010Z,94556.00
2023-04-21T08:45:02.978Z,94556.00
2023-04-21T08:46:03.007Z,94554.00
2023-04-21T08:47:02.984Z,94554.00
2023-04-21T08:48:03.025Z,94556.00
2023-04-21T08:49:02.955Z,94560.00
2023-04-21T08:50:02.953Z,94560.00
2023-04-21T08:51:02.934Z,94558.00
2023-04-21T08:52:02.967Z,94556.00
2023-04-21T08:53:02.948Z,94554.00
2023-04-21T08:54:02.983Z,94556.00
2023-04-21T08:55:02.917Z,94554.00
2023-04-21T08:56:10.819Z,94556.00
2023-04-21T08:57:14.226Z,94554.00
2023-04-21T08:58:03.960Z,94548.00
2023-04-21T08:59:02.917Z,94543.00
2023-04-21T09:00:03.961Z,94541.00
2023-04-21T09:01:02.922Z,94543.00
2023-04-21T09:02:03.068Z,94545.00
2023-04-21T09:03:04.197Z,94547.00
2023-04-21T09:04:03.044Z,94548.00
2023-04-21T09:05:03.199Z,94543.00
2023-04-21T09:06:02.959Z,94539.00
2023-04-21T09:07:02.862Z,94535.00
2023-04-21T09:08:02.888Z,94531.00
2023-04-21T09:09:02.863Z,94527.00
2023-04-21T09:10:02.873Z,94527.00
2023-04-21T09:11:02.907Z,94531.00
2023-04-21T09:12:02.846Z,94533.00
2023-04-21T09:13:02.824Z,94535.00
2023-04-21T09:14:02.819Z,94531.00
2023-04-21T09:15:02.833Z,94533.00
2023-04-21T09:16:02.798Z,94529.00
2023-04-21T09:17:02.878Z,94529.00
2023-04-21T09:18:02.878Z,94531.00
2023-04-21T09:19:02.786Z,94529.00
2023-04-21T09:20:02.805Z,94531.00
2023-04-21T09:21:02.810Z,94533.00
2023-04-21T09:22:02.763Z,94533.00
2023-04-21T09:23:02.780Z,94533.00
2023-04-21T09:24:02.774Z,94531.00
2023-04-21T09:25:02.762Z,94525.00
2023-04-21T09:26:02.759Z,94525.00
2023-04-21T09:27:02.753Z,94521.00
2023-04-21T09:28:02.752Z,94521.00
2023-04-21T09:29:02.726Z,94515.00
2023-04-21T09:30:02.725Z,94513.00
2023-04-21T09:31:02.772Z,94517.00
2023-04-21T09:32:02.709Z,94517.00
2023-04-21T09:33:08.333Z,94517.00
2023-04-21T09:34:03.826Z,94515.00
2023-04-21T09:35:02.701Z,94517.00
2023-04-21T09:36:02.709Z,94515.00
2023-04-21T09:37:02.678Z,94513.00
2023-04-21T09:38:02.745Z,94508.00
2023-04-21T09:40:04.758Z,94508.00
2023-04-21T09:41:02.806Z,94501.00
2023-04-21T09:42:02.870Z,94500.00
2023-04-21T09:43:02.864Z,94500.00
2023-04-21T09:44:02.902Z,94496.00
2023-04-21T09:46:03.003Z,94498.00
2023-04-21T09:47:02.900Z,94500.00
2023-04-21T09:48:02.987Z,94500.00
2023-04-21T09:49:02.858Z,94501.00
2023-04-21T09:50:02.897Z,94500.00
2023-04-21T09:51:25.615Z,94498.00
2023-04-21T09:52:16.944Z,94500.00
2023-04-21T09:53:03.864Z,94496.00
2023-04-21T09:54:02.853Z,94496.00
2023-04-21T09:55:02.879Z,94496.00
2023-04-21T09:56:02.842Z,94498.00
2023-04-21T09:57:02.852Z,94500.00
2023-04-21T09:58:02.854Z,94498.00
2023-04-21T09:59:02.881Z,94498.00
2023-04-21T10:00:02.821Z,94498.00
2023-04-21T10:01:02.819Z,94500.00
2023-04-21T10:02:02.831Z,94498.00
2023-04-21T10:03:02.877Z,94494.00
2023-04-21T10:04:03.029Z,94498.00
2023-04-21T10:05:02.829Z,94492.00
2023-04-21T10:06:02.793Z,94496.00
2023-04-21T10:07:02.789Z,94500.00
2023-04-21T10:08:02.773Z,94503.00
2023-04-21T10:09:02.722Z,94484.00
2023-04-21T10:10:02.775Z,94472.00
2023-04-21T10:11:02.764Z,94492.00
2023-04-21T10:12:02.729Z,94490.00
2023-04-21T10:13:02.759Z,94490.00
2023-04-21T10:14:02.724Z,94486.00
2023-04-21T10:15:02.725Z,94482.00
2023-04-21T10:16:02.783Z,94486.00
2023-04-21T10:17:02.717Z,94474.00
2023-04-21T10:18:02.756Z,94480.00
2023-04-21T10:19:02.710Z,94478.00
2023-04-21T10:20:02.728Z,94478.00
2023-04-21T10:21:02.686Z,94482.00
2023-04-21T10:22:02.668Z,94480.00
2023-04-21T10:23:02.676Z,94478.00
2023-04-21T10:24:02.696Z,94478.00
2023-04-21T10:25:02.675Z,94482.00
2023-04-21T10:26:02.643Z,94480.00
2023-04-21T10:27:02.652Z,94476.00
2023-04-21T10:28:02.637Z,94482.00
2023-04-21T10:29:02.638Z,94478.00
2023-04-21T10:30:02.603Z,94480.00
2023-04-21T10:31:02.623Z,94480.00
2023-04-21T10:32:02.617Z,94478.00
2023-04-21T10:33:02.701Z,94480.00
2023-04-21T10:34:02.616Z,94476.00
2023-04-21T10:35:02.578Z,94474.00
2023-04-21T10:36:02.574Z,94480.00
2023-04-21T10:37:02.593Z,94472.00
2023-04-21T10:38:02.593Z,94486.00
2023-04-21T10:39:02.571Z,94478.00
2023-04-21T10:40:02.589Z,94482.00
2023-04-21T10:41:02.557Z,94478.00
2023-04-21T10:42:02.560Z,94476.00
2023-04-21T10:43:02.560Z,94478.00
2023-04-21T10:44:02.543Z,94482.00
2023-04-21T10:45:02.555Z,94476.00
2023-04-21T10:46:02.516Z,94472.00
2023-04-21T10:47:02.540Z,94472.00
2023-04-21T10:48:02.564Z,94476.00
2023-04-21T10:49:02.484Z,94474.00
2023-04-21T10:50:02.504Z,94476.00
2023-04-21T10:51:02.521Z,94478.00
2023-04-21T10:52:02.663Z,94472.00
2023-04-21T10:53:02.494Z,94476.00
2023-04-21T10:54:02.470Z,94474.00
2023-04-21T10:55:02.489Z,94474.00
2023-04-21T10:56:02.450Z,94470.00
2023-04-21T10:57:02.471Z,94472.00
2023-04-21T10:58:02.493Z,94470.00
2023-04-21T10:59:02.450Z,94472.00
2023-04-21T11:00:02.461Z,94470.00
2023-04-21T11:01:02.480Z,94472.00
2023-04-21T11:02:02.460Z,94474.00
2023-04-21T11:03:02.606Z,94478.00
2023-04-21T11:04:02.577Z,94468.00
2023-04-21T11:05:02.618Z,94472.00
2023-04-21T11:06:02.433Z,94478.00
2023-04-21T11:07:02.391Z,94476.00
2023-04-21T11:08:02.412Z,94470.00
2023-04-21T11:09:02.364Z,94466.00
2023-04-21T11:10:02.387Z,94474.00
2023-04-21T11:11:02.373Z,94470.00
2023-04-21T11:12:02.359Z,94476.00
2023-04-21T11:13:02.362Z,94466.00
2023-04-21T11:14:02.351Z,94459.00
2023-04-21T11:15:02.342Z,94474.00
2023-04-21T11:16:02.348Z,94470.00
2023-04-21T11:17:02.351Z,94472.00
2023-04-21T11:18:02.360Z,94474.00
2023-04-21T11:19:02.350Z,94470.00
2023-04-21T11:20:02.382Z,94478.00
2023-04-21T11:21:02.403Z,94474.00
2023-04-21T11:22:02.433Z,94476.00
2023-04-21T11:23:02.468Z,94453.00
2023-04-21T11:24:02.490Z,94466.00
2023-04-21T11:25:02.520Z,94459.00
2023-04-21T11:26:02.555Z,94449.00
2023-04-21T11:27:02.584Z,94459.00
2023-04-21T11:28:02.680Z,94451.00
2023-04-21T11:29:02.703Z,94472.00
2023-04-21T11:30:02.688Z,94466.00
2023-04-21T11:31:02.796Z,94464.00
2023-04-21T11:32:02.814Z,94464.00
2023-04-21T11:33:02.878Z,94456.00
2023-04-21T11:34:02.868Z,94466.00
2023-04-21T11:35:02.870Z,94454.00
2023-04-21T11:36:02.944Z,94459.00
2023-04-21T11:37:02.956Z,94464.00
2023-04-21T11:38:02.985Z,94462.00
2023-04-21T11:39:03.068Z,94456.00
2023-04-21T11:40:03.079Z,94454.00
2023-04-21T11:41:03.130Z,94456.00
2023-04-21T11:42:03.158Z,94454.00
2023-04-21T11:43:03.199Z,94451.00
2023-04-21T11:44:03.245Z,94454.00
2023-04-21T11:45:03.289Z,94464.00
2023-04-21T11:46:03.341Z,94451.00
2023-04-21T11:47:03.378Z,94454.00